createdAt,value
2023-03-19T00:00:46.722Z,249.00
2023-03-19T00:03:13.772Z,255.25
2023-03-19T00:05:40.785Z,243.23
2023-03-19T00:08:07.848Z,238.43
2023-03-19T00:10:39.951Z,230.32
2023-03-19T00:13:07.201Z,233.63
2023-03-19T00:15:34.490Z,243.15
2023-03-19T00:18:01.761Z,226.52
2023-03-19T00:20:28.723Z,236.10
2023-03-19T00:22:56.195Z,229.65
2023-03-19T00:25:23.754Z,239.73
2023-03-19T00:27:51.120Z,225.05
2023-03-19T00:30:18.330Z,228.90
2023-03-19T00:32:48.928Z,219.38
2023-03-19T00:35:16.281Z,215.88
2023-03-19T00:37:43.402Z,225.52
2023-03-19T00:40:11.875Z,216.10
2023-03-19T00:42:38.923Z,213.35
2023-03-19T00:45:06.814Z,218.40
2023-03-19T00:47:33.880Z,222.90
2023-03-19T00:50:00.995Z,220.05
2023-03-19T00:52:28.020Z,217.65
2023-03-19T00:54:55.009Z,220.75
2023-03-19T00:57:22.353Z,222.27
2023-03-19T00:59:49.561Z,217.05
2023-03-19T01:02:17.305Z,216.70
2023-03-19T01:04:44.716Z,218.20
2023-03-19T01:07:12.548Z,219.80
2023-03-19T01:09:39.700Z,218.15
2023-03-19T01:12:08.218Z,212.93
2023-03-19T01:14:35.393Z,212.65
2023-03-19T01:17:02.498Z,224.30
2023-03-19T01:19:30.534Z,216.73
2023-03-19T01:21:58.230Z,216.15
2023-03-19T01:24:29.062Z,214.18
2023-03-19T01:26:56.013Z,218.60
2023-03-19T01:29:23.006Z,217.40
2023-03-19T01:31:49.996Z,212.88
2023-03-19T01:34:17.009Z,219.95
2023-03-19T01:36:44.003Z,227.98
2023-03-19T01:39:11.815Z,210.35
2023-03-19T01:41:38.795Z,211.00
2023-03-19T01:44:32.578Z,219.52
2023-03-19T01:47:06.697Z,210.80
2023-03-19T01:49:34.792Z,220.38
2023-03-19T01:52:05.051Z,225.30
2023-03-19T01:54:33.906Z,227.02
2023-03-19T01:57:09.195Z,221.00
2023-03-19T01:59:47.656Z,213.77
2023-03-19T02:02:31.911Z,202.95
2023-03-19T02:05:03.748Z,212.48
2023-03-19T02:07:34.348Z,203.77
2023-03-19T02:10:07.310Z,199.23
2023-03-19T02:12:35.361Z,221.55
2023-03-19T02:15:02.396Z,202.13
2023-03-19T02:17:29.775Z,207.45
2023-03-19T02:20:32.860Z,215.23
2023-03-19T02:23:08.725Z,214.07
2023-03-19T02:25:46.512Z,203.55
2023-03-19T02:28:17.555Z,202.82
2023-03-19T02:30:45.905Z,207.50
2023-03-19T02:33:18.934Z,201.52
2023-03-19T02:35:49.523Z,210.25
2023-03-19T02:38:16.876Z,219.80
2023-03-19T02:41:01.748Z,204.82
2023-03-19T02:43:29.775Z,210.07
2023-03-19T02:45:57.014Z,209.38
2023-03-19T02:48:25.121Z,216.30
2023-03-19T02:50:52.261Z,206.95
2023-03-19T02:53:19.528Z,211.50
2023-03-19T02:55:47.133Z,210.18
2023-03-19T02:58:14.538Z,215.93
2023-03-19T03:00:42.394Z,217.93
2023-03-19T03:03:09.674Z,222.35
2023-03-19T03:05:36.786Z,223.80
2023-03-19T03:08:04.805Z,215.50
2023-03-19T03:10:33.611Z,229.10
2023-03-19T03:13:01.686Z,220.48
2023-03-19T03:15:28.774Z,227.30
2023-03-19T03:17:56.820Z,226.32
2023-03-19T03:20:24.840Z,227.32
2023-03-19T03:22:52.108Z,218.77
2023-03-19T03:25:19.231Z,228.95
2023-03-19T03:27:46.307Z,227.48
2023-03-19T03:30:13.981Z,224.07
2023-03-19T03:32:41.458Z,221.80
2023-03-19T03:35:09.508Z,224.63
2023-03-19T03:37:38.065Z,229.77
2023-03-19T03:40:08.553Z,219.77
2023-03-19T03:42:37.487Z,222.32
2023-03-19T03:45:05.447Z,221.68
2023-03-19T03:47:32.424Z,230.27
2023-03-19T03:49:59.474Z,216.45
2023-03-19T03:52:31.269Z,228.15
2023-03-19T03:54:58.706Z,230.05
2023-03-19T03:57:26.676Z,230.07
2023-03-19T03:59:54.504Z,226.40
2023-03-19T04:02:21.789Z,228.73
2023-03-19T04:04:48.952Z,227.85
2023-03-19T04:07:16.056Z,242.70
2023-03-19T04:09:43.379Z,230.88
2023-03-19T04:12:11.192Z,224.93
2023-03-19T04:14:38.380Z,238.93
2023-03-19T04:17:05.599Z,224.73
2023-03-19T04:19:32.822Z,222.02
2023-03-19T04:21:59.884Z,228.25
2023-03-19T04:24:26.960Z,223.27
2023-03-19T04:26:53.910Z,226.60
2023-03-19T04:29:21.221Z,225.38
2023-03-19T04:31:48.265Z,221.85
2023-03-19T04:34:15.236Z,228.77
2023-03-19T04:36:42.500Z,226.13
2023-03-19T04:39:10.062Z,224.70
2023-03-19T04:41:37.619Z,227.57
2023-03-19T04:44:04.715Z,229.40
2023-03-19T04:46:31.784Z,234.57
2023-03-19T04:48:59.940Z,228.98
2023-03-19T04:51:27.483Z,228.38
2023-03-19T04:53:54.992Z,229.80
2023-03-19T04:56:22.033Z,230.65
2023-03-19T04:58:49.094Z,228.82
2023-03-19T05:01:16.192Z,234.80
2023-03-19T05:03:43.228Z,235.75
2023-03-19T05:06:10.256Z,231.90
2023-03-19T05:08:37.464Z,237.00
2023-03-19T05:11:04.899Z,234.45
2023-03-19T05:13:32.004Z,230.95
2023-03-19T05:15:59.540Z,238.02
2023-03-19T05:18:27.444Z,232.95
2023-03-19T05:20:55.449Z,234.80
2023-03-19T05:23:23.193Z,236.38
2023-03-19T05:25:50.792Z,234.75
2023-03-19T05:28:17.901Z,241.68
2023-03-19T05:30:44.937Z,237.80
2023-03-19T05:33:12.855Z,236.25
2023-03-19T05:35:40.652Z,233.38
2023-03-19T05:38:08.235Z,238.00
2023-03-19T05:40:36.182Z,243.55
2023-03-19T05:43:03.547Z,231.23
2023-03-19T05:45:30.862Z,231.15
2023-03-19T05:47:57.901Z,239.18
2023-03-19T05:50:25.007Z,245.05
2023-03-19T05:52:51.991Z,229.65
2023-03-19T05:55:19.015Z,231.98
2023-03-19T05:57:46.334Z,238.23
2023-03-19T06:00:16.045Z,230.15
2023-03-19T06:02:44.248Z,236.48
2023-03-19T06:05:12.184Z,242.93
2023-03-19T06:07:39.209Z,237.68
2023-03-19T06:10:07.064Z,231.75
2023-03-19T06:12:34.102Z,228.82
2023-03-19T06:15:01.354Z,235.75
2023-03-19T06:17:28.361Z,229.55
2023-03-19T06:19:55.427Z,235.85
2023-03-19T06:22:22.840Z,223.90
2023-03-19T06:24:49.901Z,241.57
2023-03-19T06:27:16.928Z,238.32
2023-03-19T06:29:43.948Z,240.77
2023-03-19T06:32:11.104Z,239.40
2023-03-19T06:34:38.180Z,238.50
2023-03-19T06:37:05.255Z,247.50
2023-03-19T06:39:32.709Z,234.00
2023-03-19T06:41:59.990Z,244.68
2023-03-19T06:44:27.477Z,245.55
2023-03-19T06:46:54.494Z,242.15
2023-03-19T06:49:22.023Z,237.43
2023-03-19T06:51:49.539Z,237.75
2023-03-19T06:54:16.582Z,245.48
2023-03-19T06:56:43.997Z,240.05
2023-03-19T06:59:13.216Z,247.18
2023-03-19T07:01:43.274Z,231.35
2023-03-19T07:04:11.327Z,232.40
2023-03-19T07:06:38.621Z,245.73
2023-03-19T07:09:05.782Z,230.75
2023-03-19T07:11:35.734Z,239.77
2023-03-19T07:14:03.686Z,233.98
2023-03-19T07:16:30.912Z,258.90
2023-03-19T07:18:57.847Z,250.52
2023-03-19T07:21:25.043Z,234.73
2023-03-19T07:23:52.065Z,232.25
2023-03-19T07:26:19.309Z,240.38
2023-03-19T07:28:46.288Z,250.85
2023-03-19T07:31:13.555Z,255.77
2023-03-19T07:33:40.649Z,261.77
2023-03-19T07:36:08.388Z,260.58
2023-03-19T07:38:35.549Z,257.48
2023-03-19T07:41:03.129Z,248.23
2023-03-19T07:43:31.380Z,254.05
2023-03-19T07:45:59.827Z,318.85
2023-03-19T07:48:27.539Z,321.98
2023-03-19T07:50:55.476Z,316.63
2023-03-19T07:53:23.163Z,310.73
2023-03-19T07:55:50.750Z,336.27
2023-03-19T07:58:18.477Z,348.73
2023-03-19T08:00:46.232Z,350.55
2023-03-19T08:03:14.520Z,358.30
2023-03-19T08:05:42.078Z,372.05
2023-03-19T08:08:09.755Z,358.88
2023-03-19T08:10:38.385Z,305.48
2023-03-19T08:13:06.012Z,313.30
2023-03-19T08:15:33.546Z,305.38
2023-03-19T08:18:03.471Z,305.80
2023-03-19T08:20:30.916Z,318.55
2023-03-19T08:22:59.298Z,320.55
2023-03-19T08:25:27.080Z,334.45
2023-03-19T08:27:54.521Z,343.05
2023-03-19T08:30:21.560Z,333.80
2023-03-19T08:32:49.385Z,345.40
2023-03-19T08:35:19.097Z,344.52
2023-03-19T08:37:46.319Z,359.33
2023-03-19T08:40:14.296Z,361.52
2023-03-19T08:42:44.969Z,380.42
2023-03-19T08:45:15.114Z,380.63
2023-03-19T08:47:43.499Z,402.90
2023-03-19T08:50:12.033Z,374.27
2023-03-19T08:52:41.649Z,390.88
2023-03-19T08:55:09.726Z,402.33
2023-03-19T08:57:37.736Z,419.35
2023-03-19T09:00:08.382Z,435.80
2023-03-19T09:02:36.098Z,419.85
2023-03-19T09:05:03.569Z,422.42
2023-03-19T09:07:30.636Z,448.55
2023-03-19T09:10:02.166Z,454.60
2023-03-19T09:12:29.161Z,451.65
2023-03-19T09:14:56.228Z,466.70
2023-03-19T09:17:23.207Z,499.42
2023-03-19T09:19:50.873Z,503.17
2023-03-19T09:22:17.881Z,502.48
2023-03-19T09:24:44.867Z,517.15
2023-03-19T09:27:12.036Z,536.00
2023-03-19T09:29:39.019Z,532.35
2023-03-19T09:32:06.455Z,549.08
2023-03-19T09:34:34.020Z,546.65
2023-03-19T09:37:01.554Z,565.30
2023-03-19T09:39:29.052Z,574.30
2023-03-19T09:42:55.556Z,585.05
2023-03-19T09:45:23.706Z,579.83
2023-03-19T09:47:57.149Z,606.13
2023-03-19T09:50:28.857Z,622.45
2023-03-19T09:53:17.193Z,629.03
2023-03-19T09:55:50.493Z,629.15
2023-03-19T09:58:21.288Z,626.75
2023-03-19T10:00:51.374Z,658.20
2023-03-19T10:04:26.910Z,659.20
2023-03-19T10:07:10.783Z,659.78
2023-03-19T10:09:46.219Z,672.83
2023-03-19T10:12:25.129Z,674.78
2023-03-19T10:15:21.504Z,682.75
2023-03-19T10:18:17.991Z,699.28
2023-03-19T10:21:14.354Z,707.95
2023-03-19T10:24:04.668Z,710.78
2023-03-19T10:26:37.461Z,724.88
2023-03-19T10:29:15.698Z,731.35
2023-03-19T10:32:38.181Z,736.42
2023-03-19T10:35:39.955Z,738.13
2023-03-19T10:38:26.998Z,747.67
2023-03-19T10:41:15.425Z,759.63
2023-03-19T10:43:48.148Z,763.38
2023-03-19T10:46:15.840Z,770.60
2023-03-19T10:48:47.030Z,781.55
2023-03-19T10:51:21.423Z,785.78
2023-03-19T10:53:48.465Z,782.38
2023-03-19T10:56:21.020Z,806.45
2023-03-19T10:59:03.928Z,796.85
2023-03-19T11:01:40.707Z,790.20
2023-03-19T11:04:26.412Z,801.08
2023-03-19T11:07:03.839Z,796.08
2023-03-19T11:09:34.886Z,796.58
2023-03-19T11:12:27.679Z,796.13
2023-03-19T11:14:58.218Z,792.85
2023-03-19T11:17:50.075Z,785.78
2023-03-19T11:20:35.541Z,770.85
2023-03-19T11:23:09.347Z,762.80
2023-03-19T11:25:42.966Z,777.92
2023-03-19T11:28:21.087Z,785.25
2023-03-19T11:30:57.253Z,774.30
2023-03-19T11:34:28.687Z,777.53
2023-03-19T11:37:28.652Z,744.47
2023-03-19T11:40:32.209Z,724.08
2023-03-19T11:43:47.141Z,701.95
2023-03-19T11:46:22.395Z,701.83
2023-03-19T11:49:27.455Z,702.75
2023-03-19T11:52:05.637Z,697.28
2023-03-19T11:55:11.716Z,687.05
2023-03-19T11:58:34.279Z,702.05
2023-03-19T12:01:39.279Z,658.33
2023-03-19T12:04:43.270Z,665.35
2023-03-19T12:07:13.209Z,652.42
2023-03-19T12:10:01.400Z,660.55
2023-03-19T12:13:28.774Z,653.17
2023-03-19T12:16:23.051Z,641.13
2023-03-19T12:19:27.090Z,642.33
2023-03-19T12:22:07.138Z,648.80
2023-03-19T12:25:11.779Z,632.53
2023-03-19T12:27:57.375Z,635.78
2023-03-19T12:30:49.019Z,624.10
2023-03-19T12:34:14.922Z,641.30
2023-03-19T12:36:55.129Z,620.88
2023-03-19T12:39:32.052Z,626.65
2023-03-19T12:42:00.922Z,621.28
2023-03-19T12:44:47.314Z,613.78
2023-03-19T12:47:23.041Z,616.33
2023-03-19T12:50:10.438Z,614.25
2023-03-19T12:52:58.851Z,633.90
2023-03-19T12:55:59.023Z,616.10
2023-03-19T12:58:40.728Z,615.92
2023-03-19T13:01:30.415Z,611.65
2023-03-19T13:04:18.752Z,594.50
2023-03-19T13:07:18.585Z,596.70
2023-03-19T13:09:56.803Z,584.75
2023-03-19T13:12:29.781Z,585.30
2023-03-19T13:15:08.801Z,595.72
2023-03-19T13:18:03.613Z,588.60
2023-03-19T13:21:14.109Z,579.85
2023-03-19T13:23:44.182Z,586.08
2023-03-19T13:26:13.400Z,592.78
2023-03-19T13:29:09.862Z,589.63
2023-03-19T13:31:38.508Z,575.88
2023-03-19T13:34:36.651Z,575.83
2023-03-19T13:37:20.855Z,545.78
2023-03-19T13:39:52.100Z,543.03
2023-03-19T13:42:42.230Z,543.95
2023-03-19T13:45:38.660Z,524.05
2023-03-19T13:48:47.728Z,532.78
2023-03-19T13:51:29.714Z,512.63
2023-03-19T13:54:23.782Z,519.45
2023-03-19T13:57:18.475Z,511.98
2023-03-19T13:59:50.006Z,510.65
2023-03-19T14:02:22.997Z,516.17
2023-03-19T14:05:32.942Z,527.47
2023-03-19T14:07:59.953Z,521.42
2023-03-19T14:10:30.318Z,519.55
2023-03-19T14:13:09.012Z,544.72
2023-03-19T14:15:41.798Z,541.97
2023-03-19T14:18:16.659Z,540.65
2023-03-19T14:20:57.480Z,544.13
2023-03-19T14:23:39.719Z,557.78
2023-03-19T14:26:22.991Z,568.05
2023-03-19T14:29:07.434Z,571.83
2023-03-19T14:32:01.713Z,583.83
2023-03-19T14:34:43.029Z,598.13
2023-03-19T14:37:28.799Z,601.63
2023-03-19T14:40:20.583Z,622.60
2023-03-19T14:42:50.500Z,621.70
2023-03-19T14:46:00.554Z,637.70
2023-03-19T14:49:10.040Z,637.65
2023-03-19T14:51:52.056Z,660.55
2023-03-19T14:55:01.192Z,667.75
2023-03-19T14:57:36.604Z,672.13
2023-03-19T15:00:19.739Z,685.25
2023-03-19T15:02:53.248Z,680.03
2023-03-19T15:05:29.398Z,686.88
2023-03-19T15:08:11.227Z,684.97
2023-03-19T15:11:12.088Z,683.28
2023-03-19T15:14:24.907Z,691.78
2023-03-19T15:17:07.589Z,694.70
2023-03-19T15:19:36.760Z,713.70
2023-03-19T15:22:19.940Z,708.25
2023-03-19T15:24:49.027Z,708.85
2023-03-19T15:27:24.113Z,710.72
2023-03-19T15:30:06.989Z,713.92
2023-03-19T15:33:10.562Z,710.28
2023-03-19T15:35:38.367Z,701.85
2023-03-19T15:38:11.734Z,700.80
2023-03-19T15:40:41.274Z,713.63
2023-03-19T15:43:11.834Z,716.53
2023-03-19T15:45:41.555Z,705.47
2023-03-19T15:48:22.498Z,706.80
2023-03-19T15:50:56.994Z,703.63
2023-03-19T15:53:28.798Z,705.17
2023-03-19T15:55:59.881Z,704.25
2023-03-19T15:58:32.027Z,699.45
2023-03-19T16:01:01.150Z,687.20
2023-03-19T16:03:49.908Z,687.78
2023-03-19T16:06:31.993Z,676.78
2023-03-19T16:09:30.688Z,675.45
2023-03-19T16:11:58.101Z,653.83
2023-03-19T16:14:43.717Z,657.95
2023-03-19T16:17:17.219Z,636.83
2023-03-19T16:19:58.541Z,623.45
2023-03-19T16:22:34.873Z,621.72
2023-03-19T16:25:06.905Z,626.38
2023-03-19T16:27:41.145Z,613.55
2023-03-19T16:30:25.852Z,600.03
2023-03-19T16:33:03.899Z,597.55
2023-03-19T16:35:35.130Z,606.17
2023-03-19T16:38:25.230Z,599.10
2023-03-19T16:41:34.136Z,584.22
2023-03-19T16:44:17.589Z,577.08
2023-03-19T16:46:48.729Z,570.17
2023-03-19T16:49:16.188Z,570.08
2023-03-19T16:51:43.775Z,575.72
2023-03-19T16:54:17.453Z,578.92
2023-03-19T16:56:45.101Z,558.38
2023-03-19T16:59:28.039Z,557.50
2023-03-19T17:01:58.941Z,555.53
2023-03-19T17:04:29.296Z,543.92
2023-03-19T17:06:56.904Z,550.08
2023-03-19T17:09:24.302Z,557.47
2023-03-19T17:11:53.391Z,542.15
2023-03-19T17:14:22.587Z,541.92
2023-03-19T17:16:54.406Z,535.60
2023-03-19T17:19:34.941Z,553.83
2023-03-19T17:22:02.880Z,545.88
2023-03-19T17:24:35.377Z,543.65
2023-03-19T17:27:07.453Z,533.95
2023-03-19T17:29:36.144Z,541.95
2023-03-19T17:32:04.929Z,552.78
2023-03-19T17:34:36.011Z,555.85
2023-03-19T17:37:07.302Z,533.90
2023-03-19T17:39:37.666Z,522.05
2023-03-19T17:42:22.673Z,528.28
2023-03-19T17:44:49.907Z,511.30
2023-03-19T17:47:26.137Z,531.50
2023-03-19T17:49:56.594Z,539.08
2023-03-19T17:52:27.534Z,511.02
2023-03-19T17:54:55.441Z,530.47
2023-03-19T17:57:22.833Z,515.80
2023-03-19T17:59:52.662Z,512.50
2023-03-19T18:02:24.262Z,520.10
2023-03-19T18:04:57.059Z,484.13
2023-03-19T18:07:24.836Z,490.73
2023-03-19T18:09:52.044Z,479.55
2023-03-19T18:12:19.291Z,477.08
2023-03-19T18:14:46.854Z,464.98
2023-03-19T18:17:20.841Z,472.88
2023-03-19T18:19:54.750Z,466.00
2023-03-19T18:22:27.599Z,464.05
2023-03-19T18:25:08.575Z,454.00
2023-03-19T18:27:39.910Z,436.05
2023-03-19T18:30:41.932Z,445.38
2023-03-19T18:33:17.317Z,438.27
2023-03-19T18:35:47.289Z,441.92
2023-03-19T18:38:21.658Z,442.95
2023-03-19T18:40:51.506Z,438.60
2023-03-19T18:43:39.233Z,432.45
2023-03-19T18:46:11.044Z,405.85
2023-03-19T18:48:38.266Z,413.65
2023-03-19T18:51:05.656Z,406.75
2023-03-19T18:53:35.854Z,410.77
2023-03-19T18:56:07.800Z,378.80
2023-03-19T18:58:35.145Z,404.80
2023-03-19T19:01:04.541Z,370.60
2023-03-19T19:03:33.725Z,364.73
2023-03-19T19:06:00.885Z,366.60
2023-03-19T19:08:30.417Z,363.55
2023-03-19T19:11:50.272Z,367.92
2023-03-19T19:14:22.375Z,335.42
2023-03-19T19:16:50.389Z,337.83
2023-03-19T19:19:27.818Z,326.83
2023-03-19T19:21:55.184Z,323.95
2023-03-19T19:24:22.460Z,324.77
2023-03-19T19:26:55.731Z,312.80
2023-03-19T19:29:28.468Z,308.50
2023-03-19T19:32:00.254Z,304.90
2023-03-19T19:34:27.837Z,304.23
2023-03-19T19:36:58.685Z,301.60
2023-03-19T19:39:26.436Z,291.20
2023-03-19T19:41:55.963Z,304.55
2023-03-19T19:44:23.428Z,286.63
2023-03-19T19:46:53.438Z,284.58
2023-03-19T19:49:21.882Z,284.02
2023-03-19T19:51:48.971Z,274.95
2023-03-19T19:54:18.595Z,285.50
2023-03-19T19:56:45.999Z,273.63
2023-03-19T19:59:23.019Z,262.17
2023-03-19T20:01:50.897Z,263.17
2023-03-19T20:04:18.417Z,263.25
2023-03-19T20:06:51.441Z,253.68
2023-03-19T20:09:20.050Z,252.88
2023-03-19T20:11:47.919Z,250.88
2023-03-19T20:14:15.367Z,263.70
2023-03-19T20:16:42.589Z,249.80
2023-03-19T20:19:20.290Z,249.60
2023-03-19T20:21:53.604Z,269.15
2023-03-19T20:24:21.037Z,239.15
2023-03-19T20:26:56.846Z,254.95
2023-03-19T20:29:23.867Z,252.02
2023-03-19T20:31:51.002Z,244.00
2023-03-19T20:34:32.549Z,242.82
2023-03-19T20:37:05.347Z,242.73
2023-03-19T20:39:32.384Z,240.60
2023-03-19T20:41:59.482Z,239.68
2023-03-19T20:44:26.576Z,239.20
2023-03-19T20:46:53.779Z,233.35
2023-03-19T20:49:21.240Z,233.43
2023-03-19T20:51:48.350Z,231.60
2023-03-19T20:54:16.574Z,289.83
2023-03-19T20:56:45.902Z,234.88
2023-03-19T20:59:13.464Z,229.55
2023-03-19T21:01:42.947Z,227.95
2023-03-19T21:04:19.807Z,227.50
2023-03-19T21:06:53.375Z,227.07
2023-03-19T21:09:21.687Z,228.07
2023-03-19T21:11:49.264Z,231.25
2023-03-19T21:14:16.322Z,223.48
2023-03-19T21:16:43.778Z,231.15
2023-03-19T21:19:12.682Z,233.02
2023-03-19T21:21:40.094Z,235.90
2023-03-19T21:24:19.743Z,237.02
2023-03-19T21:26:47.345Z,239.25
2023-03-19T21:29:22.750Z,244.40
2023-03-19T21:31:50.258Z,238.63
2023-03-19T21:34:17.259Z,249.55
2023-03-19T21:36:44.238Z,252.15
2023-03-19T21:39:11.740Z,251.88
2023-03-19T21:41:38.747Z,252.18
2023-03-19T21:44:14.437Z,258.27
2023-03-19T21:46:41.514Z,252.82
2023-03-19T21:49:12.437Z,259.70
2023-03-19T21:51:39.588Z,257.13
2023-03-19T21:54:06.612Z,262.27
2023-03-19T21:56:40.828Z,265.20
2023-03-19T21:59:28.321Z,266.55
2023-03-19T22:01:56.399Z,260.33
2023-03-19T22:04:23.682Z,263.38
2023-03-19T22:06:50.749Z,266.50
2023-03-19T22:09:17.837Z,277.15
2023-03-19T22:11:46.110Z,271.17
2023-03-19T22:14:20.744Z,267.63
2023-03-19T22:16:52.721Z,271.17
2023-03-19T22:19:20.351Z,267.40
2023-03-19T22:21:48.162Z,269.70
2023-03-19T22:24:15.430Z,276.23
2023-03-19T22:26:43.588Z,277.35
2023-03-19T22:29:25.340Z,270.67
2023-03-19T22:31:54.842Z,273.98
2023-03-19T22:34:25.751Z,272.52
2023-03-19T22:36:52.894Z,273.00
2023-03-19T22:39:19.935Z,275.08
2023-03-19T22:42:19.020Z,275.85
2023-03-19T22:45:03.238Z,266.95
2023-03-19T22:47:55.150Z,286.40
2023-03-19T22:50:42.781Z,263.92
2023-03-19T22:53:54.495Z,259.98
2023-03-19T22:56:40.371Z,271.70
2023-03-19T22:59:19.891Z,255.68
2023-03-19T23:02:09.360Z,263.88
2023-03-19T23:04:58.191Z,258.00
2023-03-19T23:07:42.303Z,255.80
2023-03-19T23:10:18.938Z,263.27
2023-03-19T23:13:12.142Z,261.55
2023-03-19T23:16:01.043Z,266.02
2023-03-19T23:18:47.331Z,267.25
2023-03-19T23:21:30.259Z,271.63
2023-03-19T23:24:13.878Z,261.05
2023-03-19T23:26:59.730Z,255.48
2023-03-19T23:29:52.901Z,258.70
2023-03-19T23:32:20.768Z,257.20
2023-03-19T23:34:58.542Z,263.60
2023-03-19T23:37:26.449Z,258.58
2023-03-19T23:39:53.778Z,261.02
2023-03-19T23:42:31.976Z,267.48
2023-03-19T23:45:03.683Z,265.20
2023-03-19T23:47:31.124Z,254.38
2023-03-19T23:49:58.402Z,258.13
2023-03-19T23:52:25.456Z,249.95
2023-03-19T23:54:52.591Z,246.55
2023-03-19T23:57:26.921Z,254.75
2023-03-19T23:59:54.289Z,249.23
